Time;durP1;ratioP1;P1;durP2;ratioP2;P2;SDS_P1;SDS_P2;PMS_P1;PMS_P2;Temp;Humidity;BMP_temperature;BMP_pressure;BME280_temperature;BME280_humidity;BME280_pressure;Samples;Min_cycle;Max_cycle;Signal;HPM_P1;HPM_P2
2023/11/15 00:03:45;;;;;;;2.35;2.25;;;;;;;11.23;100.00;100781.16;10372120;28;20053;-73
2023/11/15 00:08:45;;;;;;;0.50;0.50;;;;;;;11.21;100.00;100785.13;10371068;28;20118;-73
2023/11/15 00:13:50;;;;;;;0.40;0.40;;;;;;;11.12;100.00;100792.59;10371296;28;20070;-73
2023/11/15 00:18:50;;;;;;;3.22;2.97;;;;;;;11.06;100.00;100804.25;10371602;28;20034;-73
2023/11/15 00:23:51;;;;;;;0.50;0.50;;;;;;;10.91;100.00;100817.91;10372476;28;20401;-72
2023/11/15 00:28:52;;;;;;;0.43;0.43;;;;;;;10.85;100.00;100816.06;10372095;28;20062;-72
2023/11/15 00:33:53;;;;;;;0.32;0.32;;;;;;;10.76;100.00;100830.78;10371857;28;20037;-73
2023/11/15 00:38:54;;;;;;;2.95;2.72;;;;;;;10.74;100.00;100830.16;10354234;28;20439;-72
2023/11/15 00:43:54;;;;;;;0.40;0.40;;;;;;;10.73;100.00;100833.91;10369934;28;20081;-73
2023/11/15 00:48:55;;;;;;;0.40;0.40;;;;;;;10.73;100.00;100847.44;10371094;28;20433;-73
2023/11/15 00:53:55;;;;;;;0.47;0.47;;;;;;;10.82;100.00;100854.38;10369983;28;20138;-72
2023/11/15 00:58:56;;;;;;;0.30;0.30;;;;;;;10.88;100.00;100849.00;10371184;28;20404;-72
2023/11/15 01:03:58;;;;;;;0.40;0.40;;;;;;;10.90;100.00;100855.03;10354505;28;20080;-72
2023/11/15 01:08:58;;;;;;;0.68;0.68;;;;;;;10.99;100.00;100865.69;10370577;28;20125;-72
2023/11/15 01:13:58;;;;;;;0.40;0.40;;;;;;;11.07;100.00;100870.94;10373360;28;20038;-71
2023/11/15 01:18:59;;;;;;;0.40;0.40;;;;;;;11.10;100.00;100873.25;10377680;28;20065;-73
2023/11/15 01:23:59;;;;;;;0.50;0.50;;;;;;;11.11;100.00;100883.06;10360476;28;20041;-73
2023/11/15 01:29:00;;;;;;;0.50;0.50;;;;;;;11.12;100.00;100888.28;10377297;28;20121;-72
2023/11/15 01:34:00;;;;;;;0.32;0.32;;;;;;;11.06;100.00;100893.66;10343640;28;20385;-71
2023/11/15 01:39:01;;;;;;;0.40;0.40;;;;;;;11.08;100.00;100892.44;10376231;28;20069;-72
2023/11/15 01:44:02;;;;;;;0.57;0.57;;;;;;;11.12;100.00;100899.13;10375292;28;20061;-73
2023/11/15 01:49:02;;;;;;;12.23;4.60;;;;;;;11.18;100.00;100911.03;10377610;28;20034;-72
2023/11/15 01:54:04;;;;;;;12.80;5.47;;;;;;;11.13;100.00;100921.63;10359633;28;20470;-72
2023/11/15 01:59:04;;;;;;;20.00;6.05;;;;;;;11.12;100.00;100928.94;10376871;28;20042;-72
2023/11/15 02:04:05;;;;;;;17.88;5.72;;;;;;;11.00;100.00;100924.28;10377806;28;20117;-72
2023/11/15 02:09:06;;;;;;;14.75;5.32;;;;;;;10.99;100.00;100944.28;10376797;28;20132;-71
2023/11/15 02:14:06;;;;;;;13.50;5.32;;;;;;;10.99;100.00;100947.00;10376198;28;20033;-72
2023/11/15 02:19:07;;;;;;;13.98;5.25;;;;;;;10.97;100.00;100954.47;10374794;28;20034;-71
2023/11/15 02:24:08;;;;;;;11.63;5.70;;;;;;;10.91;100.00;100961.50;10375262;28;20038;-73
2023/11/15 02:29:10;;;;;;;13.18;5.07;;;;;;;10.90;100.00;100963.38;10375992;28;20037;-72
2023/11/15 02:34:11;;;;;;;17.75;6.63;;;;;;;11.00;100.00;100962.22;10374274;28;20117;-71
2023/11/15 02:39:13;;;;;;;24.00;4.97;;;;;;;11.06;100.00;100972.25;10376620;28;20351;-71
2023/11/15 02:44:13;;;;;;;15.85;3.45;;;;;;;11.04;100.00;100960.75;10358131;28;20037;-71
2023/11/15 02:49:14;;;;;;;16.60;5.07;;;;;;;11.04;100.00;100960.75;10373650;28;20038;-72
2023/11/15 02:54:14;;;;;;;12.02;3.72;;;;;;;11.09;100.00;100974.56;10373146;28;20049;-72
2023/11/15 02:59:15;;;;;;;13.27;4.72;;;;;;;11.11;100.00;100973.34;10374707;28;20466;-72
2023/11/15 03:04:15;;;;;;;19.30;6.13;;;;;;;11.12;100.00;100982.31;10374505;28;20386;-72
2023/11/15 03:09:16;;;;;;;20.63;4.55;;;;;;;11.12;100.00;100985.84;10376649;28;20042;-71
2023/11/15 03:14:16;;;;;;;11.00;3.55;;;;;;;11.16;100.00;100983.56;10373592;28;20076;-72
2023/11/15 03:19:16;;;;;;;8.73;3.15;;;;;;;11.19;100.00;100994.00;10374338;28;20065;-72
2023/11/15 03:24:17;;;;;;;22.60;4.75;;;;;;;11.23;100.00;100991.72;10373222;28;20343;-71
2023/11/15 03:29:17;;;;;;;21.77;6.00;;;;;;;11.19;100.00;101002.16;10373453;28;20042;-71
2023/11/15 03:34:18;;;;;;;14.95;4.18;;;;;;;11.20;100.00;101003.84;10373503;28;20479;-72
2023/11/15 03:39:19;;;;;;;12.85;3.92;;;;;;;11.26;100.00;101000.31;10371988;28;20042;-72
2023/11/15 03:44:19;;;;;;;17.98;3.30;;;;;;;11.32;100.00;101004.94;10373257;28;20061;-71
2023/11/15 03:49:20;;;;;;;11.77;3.33;;;;;;;11.34;100.00;101005.56;10372463;28;20121;-71
2023/11/15 03:54:20;;;;;;;23.52;4.32;;;;;;;11.36;100.00;101011.66;10372238;28;20136;-71
2023/11/15 03:59:21;;;;;;;16.90;3.80;;;;;;;11.37;100.00;101026.88;10372509;28;20125;-71
2023/11/15 04:04:22;;;;;;;18.30;4.55;;;;;;;11.41;100.00;101030.84;10371584;28;20116;-72
2023/11/15 04:09:23;;;;;;;15.15;4.25;;;;;;;11.36;100.00;101036.03;10372455;28;20034;-72
2023/11/15 04:14:25;;;;;;;19.73;4.88;;;;;;;11.37;100.00;101035.00;10371503;28;20117;-72
2023/11/15 04:19:25;;;;;;;15.88;4.13;;;;;;;11.32;100.00;101051.00;10372969;28;20036;-71
2023/11/15 04:24:25;;;;;;;7.85;2.90;;;;;;;11.36;100.00;101062.31;10371059;28;20473;-71
2023/11/15 04:29:26;;;;;;;16.90;4.00;;;;;;;11.34;100.00;101056.25;10371330;28;20046;-71
2023/11/15 04:34:26;;;;;;;24.20;5.68;;;;;;;11.35;100.00;101064.19;10371287;28;20033;-71
2023/11/15 04:39:27;;;;;;;19.42;4.47;;;;;;;11.32;100.00;101071.88;10371302;28;20470;-71
2023/11/15 04:44:29;;;;;;;7.65;2.78;;;;;;;11.31;100.00;101067.50;10370644;28;20472;-71
2023/11/15 04:49:30;;;;;;;15.50;3.88;;;;;;;11.24;100.00;101069.34;10376102;28;20045;-71
2023/11/15 04:54:30;;;;;;;11.15;3.92;;;;;;;11.15;100.00;101087.59;10361692;28;20061;-71
2023/11/15 04:59:31;;;;;;;14.05;2.38;;;;;;;11.11;100.00;101081.75;10378939;28;20034;-71
2023/11/15 05:04:33;;;;;;;12.75;4.10;;;;;;;11.12;100.00;101088.00;10378710;28;20057;-71
2023/11/15 05:09:33;;;;;;;12.52;4.55;;;;;;;11.14;100.00;101085.94;10377678;28;20049;-71
2023/11/15 05:14:36;;;;;;;5.15;2.05;;;;;;;11.11;100.00;101094.47;10377420;28;20033;-71
2023/11/15 05:19:36;;;;;;;11.50;4.53;;;;;;;11.13;100.00;101095.91;10380425;28;20045;-72
2023/11/15 05:24:37;;;;;;;23.05;3.55;;;;;;;11.16;100.00;101106.38;10376592;28;20037;-71
2023/11/15 05:29:37;;;;;;;8.77;3.53;;;;;;;11.29;100.00;101102.91;10378023;28;20064;-71
2023/11/15 05:34:38;;;;;;;13.18;5.35;;;;;;;11.29;100.00;101116.47;10376300;28;20121;-70
2023/11/15 05:39:40;;;;;;;7.38;4.10;;;;;;;11.20;100.00;101133.09;10378183;28;20046;-71
2023/11/15 05:44:40;;;;;;;7.82;3.58;;;;;;;10.97;100.00;101133.31;10376451;28;20036;-72
2023/11/15 05:49:41;;;;;;;11.98;4.60;;;;;;;10.78;100.00;101134.78;10375773;28;20058;-72
2023/11/15 05:54:43;;;;;;;16.60;3.38;;;;;;;10.74;100.00;101130.81;10376432;28;20049;-71
2023/11/15 05:59:43;;;;;;;7.68;3.20;;;;;;;10.73;100.00;101121.84;10375454;28;20091;-70
2023/11/15 06:04:43;;;;;;;17.48;4.55;;;;;;;10.81;100.00;101129.81;10375670;28;20038;-71
2023/11/15 06:09:46;;;;;;;9.68;3.22;;;;;;;10.76;100.00;101132.28;10377086;28;20397;-72
2023/11/15 06:14:47;;;;;;;17.55;4.60;;;;;;;10.72;100.00;101125.59;10377417;28;20087;-71
2023/11/15 06:19:47;;;;;;;8.82;3.63;;;;;;;10.66;100.00;101132.59;10374899;28;20493;-71
2023/11/15 06:24:48;;;;;;;19.10;3.53;;;;;;;10.73;100.00;101135.38;10376579;28;20046;-70
2023/11/15 06:29:48;;;;;;;15.98;4.75;;;;;;;10.80;100.00;101143.56;10374874;28;20519;-71
2023/11/15 06:34:49;;;;;;;15.00;4.80;;;;;;;10.95;100.00;101149.78;10374861;28;20077;-70
2023/11/15 06:39:50;;;;;;;13.20;4.20;;;;;;;10.99;100.00;101159.19;10373528;28;20034;-70
2023/11/15 06:44:50;;;;;;;11.80;3.45;;;;;;;11.03;100.00;101162.34;10374550;28;20026;-71
2023/11/15 06:49:50;;;;;;;10.70;3.83;;;;;;;10.99;100.00;101174.59;10374268;28;20061;-71
2023/11/15 06:54:52;;;;;;;14.18;3.88;;;;;;;10.96;100.00;101166.88;10374743;28;20569;-71
2023/11/15 06:59:53;;;;;;;6.13;2.83;;;;;;;11.02;100.00;101190.47;10372786;28;20125;-70
2023/11/15 07:04:54;;;;;;;8.50;3.60;;;;;;;10.92;100.00;101186.22;10374187;28;20084;-71
2023/11/15 07:09:55;;;;;;;21.67;4.10;;;;;;;10.85;100.00;101188.03;10371394;28;20038;-71
2023/11/15 07:14:57;;;;;;;15.73;4.25;;;;;;;10.73;100.00;101191.44;10373590;28;20097;-70
2023/11/15 07:19:58;;;;;;;13.35;3.22;;;;;;;10.67;100.00;101198.44;10373675;28;20053;-70
2023/11/15 07:25:00;;;;;;;13.70;4.57;;;;;;;10.53;100.00;101207.41;10374021;28;20037;-70
2023/11/15 07:30:01;;;;;;;10.15;4.55;;;;;;;10.67;100.00;101212.81;10373225;28;20034;-70
2023/11/15 07:35:03;;;;;;;21.85;3.55;;;;;;;10.83;100.00;101211.75;10371939;28;20490;-71
2023/11/15 07:40:04;;;;;;;10.43;3.45;;;;;;;10.97;100.00;101220.03;10387736;28;20041;-70
2023/11/15 07:45:05;;;;;;;19.40;4.78;;;;;;;11.08;100.00;101238.50;10371576;28;20034;-70
2023/11/15 07:50:06;;;;;;;26.67;3.67;;;;;;;11.27;100.00;101237.03;10372013;28;20053;-70
2023/11/15 07:55:07;;;;;;;10.68;4.55;;;;;;;11.36;100.00;101247.53;10370448;28;20050;-70
2023/11/15 08:00:11;;;;;;;13.18;4.38;;;;;;;11.39;100.00;101230.88;10370259;28;20092;-71
2023/11/15 08:05:11;;;;;;;16.25;5.28;;;;;;;11.41;100.00;101257.78;10372205;28;20093;-71
2023/11/15 08:10:13;;;;;;;9.70;4.53;;;;;;;11.38;100.00;101260.88;10370851;28;20120;-70
2023/11/15 08:15:16;;;;;;;7.38;3.72;;;;;;;11.36;100.00;101269.22;10369994;28;20034;-70
2023/11/15 08:20:18;;;;;;;22.98;4.47;;;;;;;11.40;100.00;101262.38;10370074;28;20372;-70
2023/11/15 08:25:20;;;;;;;20.45;3.20;;;;;;;11.50;100.00;101274.78;10370720;28;20062;-71
2023/11/15 08:30:21;;;;;;;18.90;4.57;;;;;;;11.72;100.00;101278.31;10371014;28;20041;-71
2023/11/15 08:35:21;;;;;;;15.60;4.20;;;;;;;11.88;100.00;101279.94;10370836;28;20068;-71
2023/11/15 08:40:24;;;;;;;8.00;4.03;;;;;;;12.04;100.00;101277.75;10370423;28;20083;-71
2023/11/15 08:45:25;;;;;;;14.50;3.83;;;;;;;12.07;100.00;101285.50;10370192;28;20045;-70
2023/11/15 08:50:27;;;;;;;16.27;4.50;;;;;;;12.03;100.00;101294.25;10353538;28;20095;-71
2023/11/15 08:55:28;;;;;;;14.27;2.90;;;;;;;12.07;100.00;101298.25;10370872;28;20078;-71
2023/11/15 09:00:31;;;;;;;21.00;5.18;;;;;;;12.06;100.00;101297.41;10370870;28;20050;-70
2023/11/15 09:05:32;;;;;;;13.88;3.22;;;;;;;12.10;100.00;101304.13;10369318;28;20452;-71
2023/11/15 09:10:33;;;;;;;19.02;5.15;;;;;;;12.17;100.00;101304.16;10368953;28;20111;-71
2023/11/15 09:15:34;;;;;;;14.93;4.95;;;;;;;12.21;100.00;101313.56;10352683;28;20080;-71
2023/11/15 09:20:35;;;;;;;12.43;3.55;;;;;;;12.19;100.00;101310.25;10369074;28;20034;-70
2023/11/15 09:25:36;;;;;;;18.60;5.45;;;;;;;12.32;100.00;101317.63;10371148;28;20374;-71
2023/11/15 09:30:37;;;;;;;10.18;4.65;;;;;;;12.52;100.00;101317.75;10369280;28;20042;-71
2023/11/15 09:35:38;;;;;;;13.25;4.65;;;;;;;12.69;100.00;101307.38;10357231;28;20107;-70
2023/11/15 09:40:38;;;;;;;6.70;3.00;;;;;;;12.84;100.00;101308.09;10375761;28;20507;-71
2023/11/15 09:45:41;;;;;;;10.35;4.68;;;;;;;13.12;100.00;101318.88;10377224;28;20458;-71
2023/11/15 09:50:41;;;;;;;5.95;3.05;;;;;;;13.85;100.00;101316.31;10359712;28;20061;-71
2023/11/15 09:55:42;;;;;;;17.85;3.42;;;;;;;14.02;100.00;101321.34;10375061;28;20097;-71
2023/11/15 10:00:46;;;;;;;13.20;5.15;;;;;;;13.43;100.00;101322.94;10375657;28;20431;-71
2023/11/15 10:05:59;;;;;;;20.40;4.75;;;;;;;13.29;100.00;101329.41;10375684;28;20038;-71
2023/11/15 10:11:04;;;;;;;15.43;3.95;;;;;;;13.25;100.00;101318.09;10377384;28;20176;-71
2023/11/15 10:16:24;;;;;;;22.13;3.25;;;;;;;13.13;100.00;101342.28;10375764;28;20096;-72
2023/11/15 10:21:24;;;;;;;7.68;2.22;;;;;;;12.82;100.00;101341.94;10373809;28;20029;-71
2023/11/15 10:26:37;;;;;;;7.93;3.80;;;;;;;12.94;100.00;101345.78;10374269;28;20034;-71
2023/11/15 10:31:47;;;;;;;10.27;3.47;;;;;;;12.64;100.00;101346.03;10376480;28;20049;-71
2023/11/15 10:37:10;;;;;;;14.05;3.22;;;;;;;12.29;100.00;101351.44;10390436;28;20474;-71
2023/11/15 10:42:14;;;;;;;9.80;2.30;;;;;;;12.78;100.00;101350.50;10373793;28;20042;-70
2023/11/15 10:47:19;;;;;;;7.00;3.53;;;;;;;13.22;100.00;101351.94;10373637;28;20439;-71
2023/11/15 10:52:21;;;;;;;8.05;3.90;;;;;;;13.57;100.00;101349.16;10374460;28;20041;-71
2023/11/15 10:57:21;;;;;;;8.65;3.67;;;;;;;15.22;100.00;101336.38;10372769;28;20050;-71
2023/11/15 11:02:27;;;;;;;16.48;3.72;;;;;;;15.66;100.00;101342.78;10372813;28;20038;-71
2023/11/15 11:07:57;;;;;;;7.47;2.90;;;;;;;15.81;100.00;101334.34;10372542;28;20026;-71
2023/11/15 11:12:58;;;;;;;6.38;2.30;;;;;;;14.21;100.00;101345.00;10356020;28;20038;-71
2023/11/15 11:18:03;;;;;;;12.52;4.05;;;;;;;13.79;100.00;101349.81;10373365;28;20467;-71
2023/11/15 11:23:07;;;;;;;16.73;3.88;;;;;;;13.43;100.00;101340.13;10373766;28;20038;-71
2023/11/15 11:28:12;;;;;;;16.20;3.95;;;;;;;13.43;100.00;101344.69;10371600;28;20456;-71
2023/11/15 11:33:15;;;;;;;7.28;3.30;;;;;;;14.06;100.00;101339.75;10371642;28;20034;-71
2023/11/15 11:38:38;;;;;;;11.93;3.75;;;;;;;14.43;100.00;101348.34;10373355;28;20034;-71
2023/11/15 11:43:38;;;;;;;8.00;2.85;;;;;;;14.09;100.00;101355.69;10372542;28;20026;-71
2023/11/15 11:48:38;;;;;;;5.30;3.03;;;;;;;13.44;100.00;101349.13;10373254;28;20049;-70
2023/11/15 11:53:39;;;;;;;12.63;3.88;;;;;;;13.38;100.00;101339.06;10372422;28;20370;-73
2023/11/15 11:58:41;;;;;;;5.07;3.05;;;;;;;13.51;100.00;101355.41;10354919;28;20034;-71
2023/11/15 12:03:46;;;;;;;9.63;4.07;;;;;;;12.90;100.00;101355.38;10372394;28;20034;-71
2023/11/15 12:08:47;;;;;;;8.38;3.95;;;;;;;13.19;100.00;101360.50;10371262;28;20042;-71
2023/11/15 12:13:49;;;;;;;9.35;3.92;;;;;;;13.71;100.00;101350.00;10337469;28;20037;-71
2023/11/15 12:19:05;;;;;;;9.85;3.03;;;;;;;13.85;100.00;101351.72;10353843;28;20433;-71
2023/11/15 12:24:06;;;;;;;14.17;2.77;;;;;;;13.50;100.00;101364.63;10370895;28;20133;-71
2023/11/15 12:29:20;;;;;;;17.45;3.75;;;;;;;13.55;100.00;101351.22;10371218;28;20088;-71
2023/11/15 12:34:21;;;;;;;13.85;5.30;;;;;;;13.17;100.00;101370.75;10370661;28;20081;-71
2023/11/15 12:39:21;;;;;;;8.20;3.17;;;;;;;12.84;100.00;101373.31;10353430;28;20033;-72
2023/11/15 12:44:22;;;;;;;5.18;3.05;;;;;;;12.46;100.00;101378.31;10370608;28;20343;-71
2023/11/15 12:49:23;;;;;;;4.53;2.30;;;;;;;12.38;100.00;101364.88;10352869;28;20037;-71
2023/11/15 12:54:23;;;;;;;14.30;2.05;;;;;;;12.90;100.00;101366.25;10336785;28;20066;-71
2023/11/15 12:59:32;;;;;;;15.38;3.75;;;;;;;13.12;100.00;101370.53;10370357;28;20038;-71
2023/11/15 13:04:45;;;;;;;6.55;3.70;;;;;;;12.72;100.00;101378.47;10386509;28;20018;-71
2023/11/15 13:09:46;;;;;;;14.25;3.60;;;;;;;12.42;100.00;101383.31;10372839;28;20041;-71
2023/11/15 13:14:46;;;;;;;6.82;4.28;;;;;;;12.57;100.00;101378.59;10393279;28;20469;-71
2023/11/15 13:19:47;;;;;;;12.40;3.67;;;;;;;12.10;100.00;101373.84;10359752;28;20080;-71
2023/11/15 13:24:49;;;;;;;10.50;3.67;;;;;;;11.88;100.00;101388.47;10377952;28;20057;-71
2023/11/15 13:29:50;;;;;;;19.35;3.33;;;;;;;11.85;100.00;101387.81;10377071;28;20042;-71
2023/11/15 13:34:50;;;;;;;9.88;3.35;;;;;;;11.77;100.00;101379.81;10377505;28;20042;-71
2023/11/15 13:39:51;;;;;;;16.58;2.90;;;;;;;11.56;100.00;101377.06;10376689;28;20121;-71
2023/11/15 13:44:51;;;;;;;11.25;5.47;;;;;;;11.57;100.00;101389.59;10395099;28;20499;-71
2023/11/15 13:49:51;;;;;;;5.53;3.17;;;;;;;11.53;100.00;101383.72;10377609;28;20042;-71
2023/11/15 13:54:52;;;;;;;13.68;3.45;;;;;;;11.56;100.00;101396.06;10375106;28;20058;-71
2023/11/15 13:59:52;;;;;;;9.77;3.92;;;;;;;11.59;100.00;101401.94;10376435;28;20099;-71
2023/11/15 14:04:53;;;;;;;7.55;3.65;;;;;;;11.65;100.00;101397.63;10374420;28;20058;-71
2023/11/15 14:09:54;;;;;;;6.72;3.67;;;;;;;11.81;100.00;101396.53;10375003;28;20092;-71
2023/11/15 14:14:54;;;;;;;14.23;4.00;;;;;;;11.83;100.00;101422.41;10378818;28;20030;-71
2023/11/15 14:19:55;;;;;;;18.10;3.35;;;;;;;11.56;100.00;101415.03;10377354;28;20037;-70
2023/11/15 14:24:56;;;;;;;10.93;2.75;;;;;;;11.56;100.00;101424.00;10375979;28;20030;-71
2023/11/15 14:29:56;;;;;;;10.75;3.90;;;;;;;11.65;100.00;101416.59;10376171;28;20113;-71
2023/11/15 14:34:57;;;;;;;16.27;3.85;;;;;;;11.76;100.00;101435.06;10374494;28;20065;-70
2023/11/15 14:39:57;;;;;;;8.40;3.58;;;;;;;11.50;100.00;101429.38;10376357;28;20091;-71
2023/11/15 14:44:57;;;;;;;12.85;2.78;;;;;;;11.58;100.00;101434.66;10373249;28;20026;-71
2023/11/15 14:49:59;;;;;;;9.52;2.95;;;;;;;11.31;100.00;101428.94;10373172;28;20112;-71
2023/11/15 14:55:04;;;;;;;6.78;3.28;;;;;;;11.06;100.00;101441.94;10374857;28;20058;-72
2023/11/15 15:00:06;;;;;;;10.35;3.38;;;;;;;10.82;100.00;101432.22;10374207;28;20457;-71
2023/11/15 15:05:08;;;;;;;7.45;2.92;;;;;;;10.78;100.00;101449.03;10373822;28;20052;-70
2023/11/15 15:10:11;;;;;;;11.05;3.45;;;;;;;10.64;100.00;101439.88;10373132;28;20057;-71
2023/11/15 15:15:15;;;;;;;13.23;3.80;;;;;;;10.66;100.00;101445.97;10373438;28;20038;-71
2023/11/15 15:20:19;;;;;;;15.52;3.45;;;;;;;10.58;100.00;101437.91;10372222;28;20034;-71
2023/11/15 15:25:19;;;;;;;19.38;3.67;;;;;;;10.69;100.00;101443.72;10372273;28;20116;-72
2023/11/15 15:30:21;;;;;;;13.75;3.80;;;;;;;10.67;100.00;101443.03;10372430;28;20053;-71
2023/11/15 15:35:21;;;;;;;9.82;3.33;;;;;;;10.67;100.00;101447.63;10371470;28;20458;-71
2023/11/15 15:40:30;;;;;;;5.85;2.70;;;;;;;10.76;100.00;101457.34;10355435;28;20081;-70
2023/11/15 15:45:30;;;;;;;6.90;2.40;;;;;;;10.61;100.00;101451.06;10372166;28;20121;-71
2023/11/15 15:50:31;;;;;;;13.23;3.97;;;;;;;10.58;100.00;101459.56;10371905;28;20029;-71
2023/11/15 15:55:31;;;;;;;13.02;3.50;;;;;;;10.64;100.00;101458.81;10370973;28;20241;-71
2023/11/15 16:00:32;;;;;;;5.90;2.67;;;;;;;10.77;100.00;101459.03;10370334;28;20092;-71
2023/11/15 16:05:32;;;;;;;15.23;3.17;;;;;;;10.86;100.00;101459.78;10371070;28;20056;-71
2023/11/15 16:10:32;;;;;;;10.30;4.05;;;;;;;10.95;100.00;101455.97;10372128;28;20034;-71
2023/11/15 16:15:33;;;;;;;13.75;4.18;;;;;;;11.04;100.00;101459.41;10370002;28;20124;-71
2023/11/15 16:20:33;;;;;;;17.83;3.40;;;;;;;11.12;100.00;101475.59;10353625;28;20078;-71
2023/11/15 16:25:34;;;;;;;14.50;4.45;;;;;;;11.14;100.00;101476.25;10371374;28;20038;-71
2023/11/15 16:30:35;;;;;;;16.20;3.47;;;;;;;10.70;100.00;101475.19;10353792;28;20038;-70
2023/11/15 16:35:35;;;;;;;8.85;3.88;;;;;;;10.53;100.00;101480.91;10370813;28;20080;-70
2023/11/15 16:40:38;;;;;;;10.50;2.58;;;;;;;10.55;100.00;101473.47;10371668;28;20136;-71
2023/11/15 16:45:38;;;;;;;10.75;3.92;;;;;;;10.57;100.00;101488.50;10376834;28;20045;-71
2023/11/15 16:50:42;;;;;;;20.17;3.67;;;;;;;10.58;100.00;101473.09;10379436;28;20374;-71
2023/11/15 16:55:45;;;;;;;4.50;3.13;;;;;;;10.51;100.00;101478.41;10379722;28;20148;-71
2023/11/15 17:00:47;;;;;;;7.10;3.58;;;;;;;10.47;100.00;101468.97;10379422;28;20141;-71
2023/11/15 17:05:47;;;;;;;5.65;3.05;;;;;;;10.61;100.00;101489.00;10378703;28;20037;-71
2023/11/15 17:10:48;;;;;;;15.73;4.38;;;;;;;10.67;100.00;101482.84;10379677;28;20038;-71
2023/11/15 17:15:49;;;;;;;11.60;4.80;;;;;;;10.75;100.00;101490.88;10379042;28;20030;-71
2023/11/15 17:20:49;;;;;;;5.82;3.92;;;;;;;10.83;100.00;101495.38;10378915;28;20196;-70
2023/11/15 17:25:53;;;;;;;29.08;3.33;;;;;;;10.77;100.00;101501.53;10379740;28;20034;-70
2023/11/15 17:30:55;;;;;;;5.57;2.40;;;;;;;10.78;100.00;101498.63;10378897;28;20412;-70
2023/11/15 17:35:56;;;;;;;10.10;3.92;;;;;;;10.68;100.00;101500.75;10378862;28;20470;-71
2023/11/15 17:40:57;;;;;;;11.38;3.53;;;;;;;10.69;100.00;101505.19;10379653;28;20120;-71
2023/11/15 17:45:57;;;;;;;9.07;2.35;;;;;;;10.79;100.00;101499.50;10377900;28;20433;-71
2023/11/15 17:51:03;;;;;;;4.32;2.92;;;;;;;10.67;100.00;101501.81;10378012;28;20073;-70
2023/11/15 17:56:04;;;;;;;13.13;2.88;;;;;;;10.48;100.00;101508.56;10375548;28;20053;-71
2023/11/15 18:01:05;;;;;;;5.95;3.00;;;;;;;10.45;100.00;101508.94;10375552;28;20117;-71
2023/11/15 18:06:06;;;;;;;12.77;3.90;;;;;;;10.42;100.00;101501.16;10376377;28;20442;-70
2023/11/15 18:11:08;;;;;;;9.52;3.65;;;;;;;10.43;100.00;101492.88;10391166;28;20029;-71
2023/11/15 18:16:11;;;;;;;6.63;4.32;;;;;;;10.57;100.00;101503.94;10375761;28;20474;-71
2023/11/15 18:21:12;;;;;;;7.95;2.97;;;;;;;10.64;100.00;101494.03;10358312;28;20038;-70
2023/11/15 18:26:12;;;;;;;10.57;4.82;;;;;;;10.75;100.00;101496.28;10374430;28;20108;-71
2023/11/15 18:31:13;;;;;;;5.03;2.63;;;;;;;10.92;100.00;101505.94;10374754;28;20042;-71
2023/11/15 18:36:13;;;;;;;7.45;2.63;;;;;;;10.94;100.00;101506.63;10374884;28;20090;-71
2023/11/15 18:41:15;;;;;;;7.65;4.05;;;;;;;11.00;100.00;101512.31;10374853;28;20034;-71
2023/11/15 18:46:16;;;;;;;8.73;2.33;;;;;;;10.97;100.00;101513.50;10375056;28;20045;-71
2023/11/15 18:51:21;;;;;;;7.32;3.67;;;;;;;11.05;100.00;101509.91;10342280;28;20060;-71
2023/11/15 18:56:23;;;;;;;8.35;2.58;;;;;;;11.07;100.00;101510.53;10373787;28;20062;-71
2023/11/15 19:01:23;;;;;;;8.50;3.38;;;;;;;11.12;100.00;101510.81;10374795;28;20421;-70
2023/11/15 19:06:26;;;;;;;8.00;2.80;;;;;;;11.13;100.00;101517.91;10356345;28;20093;-70
2023/11/15 19:11:27;;;;;;;7.82;2.80;;;;;;;11.07;100.00;101513.25;10373979;28;20029;-71
2023/11/15 19:16:28;;;;;;;6.43;2.38;;;;;;;11.02;100.00;101521.94;10372469;28;20045;-71
2023/11/15 19:21:28;;;;;;;13.95;2.60;;;;;;;11.07;100.00;101529.50;10372185;28;20030;-71
2023/11/15 19:26:30;;;;;;;6.93;3.33;;;;;;;11.05;100.00;101520.75;10372923;28;20066;-70
2023/11/15 19:31:31;;;;;;;7.50;2.67;;;;;;;11.10;100.00;101518.28;10371408;28;20124;-70
2023/11/15 19:36:32;;;;;;;21.83;3.13;;;;;;;11.12;100.00;101513.53;10372320;28;20536;-72
2023/11/15 19:41:32;;;;;;;11.52;2.80;;;;;;;11.09;100.00;101522.03;10373061;28;20066;-72
2023/11/15 19:46:33;;;;;;;12.40;3.33;;;;;;;10.77;100.00;101506.97;10373491;28;20058;-71
2023/11/15 19:51:33;;;;;;;17.20;3.70;;;;;;;10.54;100.00;101517.84;10373217;28;20057;-71
2023/11/15 19:56:34;;;;;;;18.70;3.92;;;;;;;10.57;100.00;101510.19;10370704;28;20045;-71
2023/11/15 20:01:35;;;;;;;7.20;3.53;;;;;;;10.49;100.00;101512.94;10371400;28;20100;-71
2023/11/15 20:06:35;;;;;;;14.43;2.97;;;;;;;10.55;100.00;101503.25;10370316;28;20041;-71
2023/11/15 20:11:36;;;;;;;4.28;2.03;;;;;;;10.53;100.00;101517.00;10371562;28;20124;-71
2023/11/15 20:16:36;;;;;;;7.03;2.30;;;;;;;10.69;100.00;101513.31;10370126;28;20050;-71
2023/11/15 20:21:37;;;;;;;6.97;3.28;;;;;;;10.82;100.00;101513.50;10369133;28;20041;-71
2023/11/15 20:26:37;;;;;;;4.53;2.30;;;;;;;10.83;100.00;101507.06;10371883;28;20397;-71
2023/11/15 20:31:38;;;;;;;8.70;3.75;;;;;;;10.86;100.00;101509.41;10370540;28;20034;-71
2023/11/15 20:36:38;;;;;;;3.95;2.35;;;;;;;10.92;100.00;101518.66;10353420;28;20037;-71
2023/11/15 20:41:38;;;;;;;4.00;2.50;;;;;;;10.92;100.00;101519.50;10370769;28;20048;-71
2023/11/15 20:46:39;;;;;;;9.32;3.15;;;;;;;10.96;100.00;101521.84;10369333;28;20041;-71
2023/11/15 20:51:46;;;;;;;5.43;2.55;;;;;;;10.93;100.00;101518.47;10370439;28;20474;-71
2023/11/15 20:56:48;;;;;;;10.75;3.90;;;;;;;10.93;100.00;101513.03;10369754;28;20046;-71
2023/11/15 21:01:48;;;;;;;4.28;2.53;;;;;;;10.94;100.00;101511.16;10370305;28;20050;-71
2023/11/15 21:06:50;;;;;;;12.15;4.25;;;;;;;10.91;100.00;101508.84;10370179;28;20446;-71
2023/11/15 21:11:53;;;;;;;8.80;3.38;;;;;;;10.87;100.00;101500.22;10354056;28;20099;-72
2023/11/15 21:16:53;;;;;;;5.47;2.22;;;;;;;10.99;100.00;101519.59;10370161;28;20061;-71
2023/11/15 21:21:54;;;;;;;17.60;2.88;;;;;;;11.01;100.00;101513.97;10352294;28;20077;-71
2023/11/15 21:26:55;;;;;;;11.50;3.22;;;;;;;11.01;100.00;101508.56;10352283;28;20101;-71
2023/11/15 21:31:55;;;;;;;2.95;2.30;;;;;;;11.01;100.00;101513.97;10373118;28;20084;-71
2023/11/15 21:36:57;;;;;;;8.55;3.22;;;;;;;11.01;100.00;101513.97;10376767;28;20461;-71
2023/11/15 21:41:57;;;;;;;7.50;2.90;;;;;;;11.00;100.00;101513.16;10375326;28;20038;-71
2023/11/15 21:46:58;;;;;;;11.00;3.17;;;;;;;10.99;100.00;101518.75;10391655;28;20037;-72
2023/11/15 21:51:58;;;;;;;10.50;3.55;;;;;;;10.97;100.00;101508.09;10375353;28;20038;-72
2023/11/15 21:56:59;;;;;;;5.80;2.50;;;;;;;10.97;100.00;101502.69;10376416;28;20080;-71
2023/11/15 22:02:00;;;;;;;10.43;2.63;;;;;;;10.98;100.00;101511.66;10374211;28;20049;-71
2023/11/15 22:07:00;;;;;;;1.67;1.58;;;;;;;10.96;100.00;101517.25;10375897;28;20034;-70
2023/11/15 22:12:01;;;;;;;11.75;2.78;;;;;;;11.07;100.00;101527.66;10377154;28;20064;-71
2023/11/15 22:17:01;;;;;;;3.30;2.42;;;;;;;11.05;100.00;101523.44;10375781;28;20478;-71
2023/11/15 22:22:02;;;;;;;12.05;2.17;;;;;;;10.98;100.00;101527.94;10376221;28;20054;-70
2023/11/15 22:27:02;;;;;;;12.02;2.58;;;;;;;10.94;100.00;101520.16;10376869;28;20042;-71
2023/11/15 22:32:03;;;;;;;11.95;2.25;;;;;;;10.97;100.00;101535.19;10392572;28;20034;-71
2023/11/15 22:37:03;;;;;;;15.50;3.33;;;;;;;10.97;100.00;101537.06;10375576;28;20511;-70
2023/11/15 22:42:04;;;;;;;10.13;2.63;;;;;;;10.87;100.00;101540.03;10373328;28;20450;-71